Waynesville, GA

4:59 PM EST on December 09, 2016 (GMT -0500)
Timber Landing | | Change Station
Active Advisory: Freeze Warning

Elev 43 ft 31.19 °N, 81.61 °W | Updated 14 seconds ago

Clear
Clear
52.0 °F
Feels Like 52.0 °F
N
0.0
Wind Variable Wind from North
Gusts 0.0 mph

Today
High -- | Low -- °F
--% Chance of Precip.
Yesterday
High -- | Low -- °F
Precip. -- in
Pressure 30.37 in
Visibility 10.0 miles
Clouds Clear
Dew Point 26 °F
Humidity 36%
Rainfall 0.00 in
Snow Depth Not available.
7:14 AM 5:24 PM
Waxing Gibbous, 77% visible
METAR KBQK 092155Z AUTO 01003KT 10SM CLR 11/M01 A3037 RMK AO2
Pressure 30.37 in
Visibility 10.0 miles
Clouds Clear
Dew Point 26 °F
Humidity 36%
Rainfall 0.00 in
Snow Depth Not available.
7:14 AM 5:24 PM
Waxing Gibbous, 77% visible
METAR KBQK 092155Z AUTO 01003KT 10SM CLR 11/M01 A3037 RMK AO2

10-Day Weather Forecast

Almanac

Astronomy

Dec. 09, 2016 Rise Set
Actual Time
Civil Twilight
Nautical Twilight
Astronomical Twilight
Moon
Length of Visible Light
Length of Day
Tomorrow will be .
, % of the Moon is Illuminated

Today's Extremes

State Highs State Lows

Community

WunderPhotos

Upload Photos

1,956,535 photos uploaded!

WunderBlog® & News

Nearby

Air Quality

  Air Quality AQ Index Pollutant
Not available.

Snow Depth

Station Depth Elevation

Earthquake Activity

City Distance Mag. Time & Date
Minimum magnitude displayed is 2.5.

Coastal Water Temperatures

Place Temperature

Stations

Nearby Weather Stations

Station Location Temp. Windchill Dew Point Humidity Wind Precip. Elev Updated Type
                   

Watches & Warnings

Freeze Warning
Issued: 2:02 PM EST Dec. 9, 2016 – National Weather Service

... Freeze warning remains in effect from 1 am to 9 am EST
Saturday...

* temperature... 28 to 32 degrees. Freezing temperatures are
expected for 2 to 6 hours.

* Impacts... damage to sensitive outdoor vegetation possible.
Protect plants and animals from freezing temperatures.

Precautionary/preparedness actions...

A freeze warning means sub-freezing temperatures are imminent or
expected for at least 2 hours. Appropriate action should be taken
to ensure tender vegetation and outdoor pets have adequate
protection from the cold temperatures. Young children... the
elderly and the homeless are especially vulnerable to the cold.
Take measures to protect them.



Nelson